Time;durP1;ratioP1;P1;durP2;ratioP2;P2;SDS_P1;SDS_P2;PMS_P1;PMS_P2;Temp;Humidity;BMP_temperature;BMP_pressure;BME280_temperature;BME280_humidity;BME280_pressure;Samples;Min_cycle;Max_cycle;Signal;HPM_P1;HPM_P2
2022/04/09 00:00:16;;;;;;;5.97;2.30;;;4.10;99.90;;;;;;5053727;28;20248;-83
2022/04/09 00:02:41;;;;;;;8.13;2.07;;;4.10;99.90;;;;;;5053632;28;20562;-83
2022/04/09 00:05:09;;;;;;;10.93;1.73;;;4.10;99.90;;;;;;5053543;28;20182;-83
2022/04/09 00:07:35;;;;;;;7.47;1.93;;;4.10;99.90;;;;;;5053582;28;20178;-83
2022/04/09 00:10:02;;;;;;;12.20;2.23;;;4.10;99.90;;;;;;5053587;28;20201;-83
2022/04/09 00:12:28;;;;;;;7.43;1.87;;;4.10;99.90;;;;;;5053481;28;20181;-84
2022/04/09 00:14:53;;;;;;;6.43;1.90;;;4.20;99.90;;;;;;5055075;28;20174;-83
2022/04/09 00:17:19;;;;;;;9.43;2.07;;;4.20;99.90;;;;;;5057169;28;20212;-82
2022/04/09 00:19:45;;;;;;;8.67;2.20;;;4.10;99.90;;;;;;5056613;28;20513;-83
2022/04/09 00:22:13;;;;;;;11.33;2.53;;;4.10;99.90;;;;;;5056941;28;20170;-83
2022/04/09 00:24:38;;;;;;;6.63;1.90;;;4.10;99.90;;;;;;5057056;28;20637;-82
2022/04/09 00:27:04;;;;;;;11.13;2.33;;;4.10;99.90;;;;;;5055594;28;20178;-85
2022/04/09 00:29:30;;;;;;;8.13;2.10;;;4.00;99.90;;;;;;5057036;28;20166;-84
2022/04/09 00:31:56;;;;;;;9.30;2.17;;;4.10;99.90;;;;;;5056850;28;20586;-84
2022/04/09 00:34:22;;;;;;;8.47;2.30;;;4.10;99.90;;;;;;5056718;28;20182;-84
2022/04/09 00:36:47;;;;;;;8.13;2.43;;;4.00;99.90;;;;;;5056895;28;20197;-84
2022/04/09 00:39:13;;;;;;;6.63;2.10;;;4.00;99.90;;;;;;5055426;28;20245;-84
2022/04/09 00:41:40;;;;;;;6.60;2.40;;;3.90;99.90;;;;;;5056517;28;20202;-82
2022/04/09 00:44:21;;;;;;;9.67;2.40;;;3.90;99.90;;;;;;5056883;28;20166;-83
2022/04/09 00:46:47;;;;;;;13.97;2.60;;;3.90;99.90;;;;;;5056666;28;20183;-84
2022/04/09 00:49:14;;;;;;;7.43;2.00;;;3.90;99.90;;;;;;5056408;28;20228;-84
2022/04/09 00:51:41;;;;;;;7.30;2.00;;;3.90;99.90;;;;;;5056435;28;20213;-84
2022/04/09 00:54:11;;;;;;;6.77;2.43;;;3.90;99.90;;;;;;5056548;28;20209;-85
2022/04/09 00:56:38;;;;;;;5.93;2.00;;;4.00;99.90;;;;;;5056565;28;20198;-84
2022/04/09 00:59:06;;;;;;;9.73;2.20;;;4.00;99.90;;;;;;5056279;28;20613;-84
2022/04/09 01:01:37;;;;;;;10.43;2.47;;;4.00;99.90;;;;;;5056333;28;20174;-84
2022/04/09 01:04:10;;;;;;;5.80;1.80;;;3.90;99.90;;;;;;5055985;28;20181;-82
2022/04/09 01:06:36;;;;;;;11.07;2.37;;;3.90;99.90;;;;;;5056134;28;20508;-84
2022/04/09 01:09:04;;;;;;;8.40;2.57;;;3.90;99.90;;;;;;5056054;28;20174;-82
2022/04/09 01:11:31;;;;;;;11.20;2.47;;;3.80;99.90;;;;;;5056202;28;20648;-83
2022/04/09 01:13:57;;;;;;;6.83;2.10;;;3.80;99.90;;;;;;5056160;28;20166;-83
2022/04/09 01:16:24;;;;;;;7.37;2.67;;;3.80;99.90;;;;;;5056114;28;20574;-84
2022/04/09 01:18:50;;;;;;;15.17;3.57;;;3.80;99.90;;;;;;5056004;28;20636;-84
2022/04/09 01:21:15;;;;;;;9.27;2.77;;;3.80;99.90;;;;;;5055445;28;20229;-84
2022/04/09 01:23:41;;;;;;;8.40;2.50;;;3.90;99.90;;;;;;5055787;28;20689;-83
2022/04/09 01:26:07;;;;;;;12.03;2.73;;;3.90;99.90;;;;;;5054733;28;20178;-84
2022/04/09 01:28:34;;;;;;;9.00;3.10;;;3.90;99.90;;;;;;5055798;28;20166;-83
2022/04/09 01:30:59;;;;;;;8.83;2.43;;;3.90;99.90;;;;;;5054615;28;20205;-84
2022/04/09 01:33:25;;;;;;;7.83;2.37;;;3.90;99.90;;;;;;5055578;28;20235;-83
2022/04/09 01:35:51;;;;;;;12.83;3.27;;;3.90;99.90;;;;;;5055366;28;20177;-84
2022/04/09 01:38:17;;;;;;;7.40;2.10;;;4.00;99.90;;;;;;5055754;28;20198;-83
2022/04/09 01:40:43;;;;;;;8.10;2.53;;;3.90;99.90;;;;;;5055699;28;20620;-83
2022/04/09 01:43:09;;;;;;;8.03;2.47;;;3.90;99.90;;;;;;5054307;28;20184;-84
2022/04/09 01:45:35;;;;;;;11.63;2.93;;;3.90;99.90;;;;;;5055619;28;20615;-83
2022/04/09 01:48:01;;;;;;;15.03;2.90;;;4.00;99.90;;;;;;5055274;28;20177;-83
2022/04/09 01:50:27;;;;;;;8.87;2.47;;;4.00;99.90;;;;;;5055129;28;20202;-84
2022/04/09 01:52:56;;;;;;;6.53;2.30;;;4.00;99.90;;;;;;5055317;28;20197;-82
2022/04/09 01:55:22;;;;;;;7.80;2.80;;;4.00;99.90;;;;;;5055422;28;20162;-84
2022/04/09 01:57:51;;;;;;;10.30;2.50;;;4.00;99.90;;;;;;5055184;28;20178;-83
2022/04/09 02:00:17;;;;;;;15.93;2.33;;;4.00;99.90;;;;;;5055154;28;20222;-84
2022/04/09 02:02:44;;;;;;;8.23;2.37;;;3.90;99.90;;;;;;5055034;28;20736;-84
2022/04/09 02:05:14;;;;;;;10.77;2.47;;;4.00;99.90;;;;;;5054895;28;20643;-84
2022/04/09 02:07:41;;;;;;;7.43;2.17;;;4.00;99.90;;;;;;5054006;28;20190;-83
2022/04/09 02:10:08;;;;;;;9.13;2.10;;;4.10;99.90;;;;;;5054020;28;20328;-84
2022/04/09 02:12:35;;;;;;;11.87;2.43;;;4.10;99.90;;;;;;5054938;28;20268;-83
2022/04/09 02:15:02;;;;;;;8.33;2.13;;;4.10;99.90;;;;;;5055097;28;20588;-84
2022/04/09 02:17:28;;;;;;;8.93;2.50;;;4.10;99.90;;;;;;5054893;28;20520;-84
2022/04/09 02:19:54;;;;;;;10.03;2.50;;;4.10;99.90;;;;;;5054469;28;20221;-85
2022/04/09 02:22:20;;;;;;;8.50;2.13;;;4.00;99.90;;;;;;5054799;28;20236;-84
2022/04/09 02:24:49;;;;;;;9.27;2.13;;;4.00;99.90;;;;;;5054873;28;20170;-83
2022/04/09 02:27:14;;;;;;;8.93;2.70;;;4.10;99.90;;;;;;5053538;28;20604;-83
2022/04/09 02:29:40;;;;;;;12.77;2.67;;;4.00;99.90;;;;;;5054614;28;20261;-84
2022/04/09 02:32:06;;;;;;;7.77;2.00;;;4.00;99.90;;;;;;5054808;28;20554;-84
2022/04/09 02:34:32;;;;;;;18.20;2.87;;;4.00;99.90;;;;;;5054335;28;20686;-82
2022/04/09 02:36:57;;;;;;;6.57;1.93;;;4.00;99.90;;;;;;5054354;28;20260;-84
2022/04/09 02:39:23;;;;;;;11.50;2.73;;;4.00;99.90;;;;;;5054638;28;20233;-83
2022/04/09 02:41:52;;;;;;;6.60;2.10;;;4.10;99.90;;;;;;5069957;28;20248;-85
2022/04/09 02:44:18;;;;;;;12.53;2.47;;;4.10;99.90;;;;;;5054426;28;20178;-84
2022/04/09 02:46:45;;;;;;;6.33;2.43;;;4.10;99.90;;;;;;5054569;28;20174;-84
2022/04/09 02:49:10;;;;;;;10.70;2.33;;;4.10;99.90;;;;;;5054119;28;20173;-85
2022/04/09 02:51:36;;;;;;;9.53;2.30;;;4.10;99.90;;;;;;5054351;28;20264;-84
2022/04/09 02:54:02;;;;;;;8.03;2.77;;;4.10;99.90;;;;;;5054458;28;20307;-84
2022/04/09 02:56:27;;;;;;;9.57;2.40;;;4.10;99.90;;;;;;5053259;28;20512;-85
2022/04/09 02:58:53;;;;;;;10.67;2.90;;;4.00;99.90;;;;;;5054241;28;20174;-84
2022/04/09 03:01:19;;;;;;;9.20;2.70;;;4.00;99.90;;;;;;5054244;28;20189;-85
2022/04/09 03:03:44;;;;;;;12.23;2.57;;;3.90;99.90;;;;;;5054237;28;20166;-84
2022/04/09 03:06:10;;;;;;;13.93;3.57;;;4.00;99.90;;;;;;5054293;28;20175;-84
2022/04/09 03:08:36;;;;;;;9.63;2.37;;;3.90;99.90;;;;;;5054283;28;20498;-85
2022/04/09 03:11:02;;;;;;;12.53;2.77;;;3.90;99.90;;;;;;5054220;28;20259;-83
2022/04/09 03:13:27;;;;;;;12.00;2.33;;;3.90;99.90;;;;;;5054113;28;20166;-82
2022/04/09 03:15:53;;;;;;;8.03;2.40;;;3.90;99.90;;;;;;5054266;28;20237;-83
2022/04/09 03:18:19;;;;;;;10.87;3.00;;;3.90;99.90;;;;;;5054194;28;20180;-83
2022/04/09 03:20:45;;;;;;;13.70;2.70;;;3.90;99.90;;;;;;5053843;28;20252;-84
2022/04/09 03:23:11;;;;;;;6.73;2.70;;;3.90;99.90;;;;;;5053911;28;20170;-83
2022/04/09 03:25:36;;;;;;;8.73;2.33;;;3.80;99.90;;;;;;5052794;28;20197;-83
2022/04/09 03:28:02;;;;;;;12.40;2.97;;;3.90;99.90;;;;;;5053882;28;20516;-83
2022/04/09 03:30:28;;;;;;;14.83;3.53;;;3.90;99.90;;;;;;5053980;28;20667;-79
2022/04/09 03:32:54;;;;;;;6.63;2.33;;;3.90;99.90;;;;;;5054034;28;20493;-85
2022/04/09 03:35:20;;;;;;;14.50;3.90;;;3.90;99.90;;;;;;5053741;28;20552;-83
2022/04/09 03:37:46;;;;;;;8.17;2.70;;;3.90;99.90;;;;;;5053991;28;20212;-79
2022/04/09 03:40:13;;;;;;;7.43;2.67;;;3.90;99.90;;;;;;5052807;28;20189;-84
2022/04/09 03:42:39;;;;;;;10.43;2.40;;;4.00;99.90;;;;;;5052638;28;20193;-80
2022/04/09 03:45:05;;;;;;;4.83;2.60;;;4.00;99.90;;;;;;5052559;28;20178;-85
2022/04/09 03:47:34;;;;;;;6.90;2.40;;;4.00;99.90;;;;;;5054047;28;20189;-85
2022/04/09 03:50:05;;;;;;;11.47;2.97;;;4.10;99.90;;;;;;5056391;28;20615;-84
2022/04/09 03:52:30;;;;;;;7.20;2.60;;;4.00;99.90;;;;;;5057676;28;20232;-79
2022/04/09 03:54:56;;;;;;;10.53;2.50;;;4.00;99.90;;;;;;5057679;28;20259;-84
2022/04/09 03:57:22;;;;;;;10.00;2.77;;;3.90;99.90;;;;;;5057601;28;20549;-85
2022/04/09 03:59:48;;;;;;;6.37;2.17;;;3.90;99.90;;;;;;5056454;28;20666;-85
2022/04/09 04:02:14;;;;;;;8.63;2.43;;;3.90;99.90;;;;;;5057749;28;20170;-84
2022/04/09 04:04:40;;;;;;;7.77;2.40;;;3.80;99.90;;;;;;5057276;28;20197;-85
2022/04/09 04:07:05;;;;;;;6.00;2.43;;;3.80;99.90;;;;;;5057878;28;20252;-86
2022/04/09 04:09:31;;;;;;;8.20;2.50;;;3.80;99.90;;;;;;5057441;28;20216;-85
2022/04/09 04:11:57;;;;;;;7.00;2.33;;;3.80;99.90;;;;;;5057226;28;20654;-85
2022/04/09 04:14:25;;;;;;;8.53;2.73;;;3.80;99.90;;;;;;5057938;28;20182;-85
2022/04/09 04:16:51;;;;;;;11.27;2.93;;;3.80;99.90;;;;;;5056285;28;20220;-84
2022/04/09 04:19:17;;;;;;;9.07;2.53;;;3.70;99.90;;;;;;5057195;28;20210;-86
2022/04/09 04:21:42;;;;;;;13.67;3.20;;;3.70;99.90;;;;;;5056935;28;20679;-81
2022/04/09 04:24:08;;;;;;;13.43;2.97;;;3.70;99.90;;;;;;5057198;28;20178;-84
2022/04/09 04:26:34;;;;;;;6.57;2.20;;;3.70;99.90;;;;;;5055791;28;20281;-84
2022/04/09 04:29:00;;;;;;;11.10;2.53;;;3.80;99.90;;;;;;5056962;28;20178;-83
2022/04/09 04:31:25;;;;;;;11.10;2.73;;;3.80;99.90;;;;;;5056919;28;20213;-85
2022/04/09 04:33:51;;;;;;;10.67;2.63;;;3.80;99.90;;;;;;5056945;28;20246;-86
2022/04/09 04:36:16;;;;;;;11.47;3.40;;;3.70;99.90;;;;;;5056973;28;20204;-85
2022/04/09 04:38:42;;;;;;;6.60;2.90;;;3.70;99.90;;;;;;5056930;28;20228;-83
2022/04/09 04:41:08;;;;;;;10.77;2.87;;;3.80;99.90;;;;;;5056873;28;20185;-85
2022/04/09 04:43:33;;;;;;;15.07;3.50;;;3.80;99.90;;;;;;5056881;28;20182;-85
2022/04/09 04:45:59;;;;;;;10.73;2.93;;;3.80;99.90;;;;;;5056081;28;20178;-84
2022/04/09 04:48:25;;;;;;;7.73;2.83;;;3.90;99.90;;;;;;5056542;28;20541;-85
2022/04/09 04:50:51;;;;;;;6.37;2.33;;;3.90;99.90;;;;;;5056438;28;20300;-86
2022/04/09 04:53:17;;;;;;;7.70;2.70;;;3.90;99.90;;;;;;5056737;28;20250;-84
2022/04/09 04:55:42;;;;;;;8.27;3.23;;;3.90;99.90;;;;;;5056812;28;20174;-85
2022/04/09 04:58:08;;;;;;;10.63;3.13;;;3.90;99.90;;;;;;5056656;28;20217;-86
2022/04/09 05:00:34;;;;;;;6.13;2.57;;;3.90;99.90;;;;;;5056100;28;20251;-85
2022/04/09 05:02:59;;;;;;;9.57;3.20;;;3.90;99.90;;;;;;5056565;28;20568;-85
2022/04/09 05:05:26;;;;;;;7.80;2.63;;;3.90;99.90;;;;;;5056473;28;20185;-85
2022/04/09 05:07:53;;;;;;;10.03;3.00;;;3.90;99.90;;;;;;5056221;28;20174;-83
2022/04/09 05:10:22;;;;;;;10.00;2.43;;;3.90;99.90;;;;;;5056219;28;20201;-84
2022/04/09 05:12:49;;;;;;;11.70;2.83;;;3.90;99.90;;;;;;5056416;28;20178;-85
2022/04/09 05:15:16;;;;;;;13.43;2.93;;;3.90;99.90;;;;;;5056228;28;20175;-84
2022/04/09 05:17:42;;;;;;;5.90;2.20;;;3.80;99.90;;;;;;5056255;28;20272;-85
2022/04/09 05:20:11;;;;;;;10.33;2.50;;;3.90;99.90;;;;;;5054494;28;20260;-85
2022/04/09 05:22:39;;;;;;;8.50;2.70;;;3.90;99.90;;;;;;5056031;28;20597;-85
2022/04/09 05:25:05;;;;;;;8.43;2.10;;;4.00;99.90;;;;;;5054851;28;20181;-85
2022/04/09 05:27:31;;;;;;;8.33;2.50;;;3.90;99.90;;;;;;5056062;28;20597;-86
2022/04/09 05:29:57;;;;;;;11.23;2.63;;;4.00;99.90;;;;;;5054910;28;20186;-83
2022/04/09 05:32:23;;;;;;;10.47;2.70;;;3.90;99.90;;;;;;5055910;28;20216;-81
2022/04/09 05:34:49;;;;;;;9.40;3.23;;;4.00;99.90;;;;;;5055716;28;20233;-85
2022/04/09 05:37:16;;;;;;;9.50;2.93;;;4.00;99.90;;;;;;5056000;28;20223;-85
2022/04/09 05:39:47;;;;;;;7.70;2.77;;;4.00;99.90;;;;;;5055876;28;20181;-85
2022/04/09 05:42:12;;;;;;;7.07;2.57;;;4.00;99.90;;;;;;5055861;28;20165;-82
2022/04/09 05:44:38;;;;;;;7.93;2.80;;;4.10;99.90;;;;;;5055895;28;20576;-85
2022/04/09 05:47:04;;;;;;;13.23;2.47;;;4.10;99.90;;;;;;5055736;28;20162;-84
2022/04/09 05:49:30;;;;;;;9.07;2.50;;;4.20;99.90;;;;;;5055666;28;20197;-85
2022/04/09 05:51:57;;;;;;;9.73;2.53;;;4.20;99.90;;;;;;5055063;28;20233;-86
2022/04/09 05:54:24;;;;;;;10.90;2.70;;;4.30;99.90;;;;;;5055778;28;20221;-85
2022/04/09 05:56:51;;;;;;;11.47;2.73;;;4.50;99.90;;;;;;5055598;28;20158;-85
2022/04/09 05:59:16;;;;;;;8.43;2.43;;;4.40;99.90;;;;;;5055493;28;20623;-86
2022/04/09 06:01:42;;;;;;;8.70;2.57;;;4.30;99.90;;;;;;5055436;28;20178;-84
2022/04/09 06:04:08;;;;;;;5.63;2.33;;;4.30;99.90;;;;;;5055294;28;20181;-86
2022/04/09 06:06:34;;;;;;;6.20;2.63;;;4.30;99.90;;;;;;5054936;28;20541;-85
2022/04/09 06:08:59;;;;;;;8.80;2.70;;;4.40;99.90;;;;;;5055196;28;20569;-85
2022/04/09 06:11:25;;;;;;;7.37;2.53;;;4.50;99.90;;;;;;5053230;28;20205;-84
2022/04/09 06:13:51;;;;;;;7.67;2.40;;;4.50;99.90;;;;;;5054145;28;20182;-84
2022/04/09 06:16:17;;;;;;;6.57;2.50;;;4.50;99.90;;;;;;5054027;28;20174;-86
2022/04/09 06:18:43;;;;;;;13.10;3.03;;;4.50;99.90;;;;;;5055099;28;20174;-84
2022/04/09 06:21:09;;;;;;;6.77;2.37;;;4.50;99.90;;;;;;5054591;28;20233;-84
2022/04/09 06:23:36;;;;;;;9.40;2.53;;;4.60;99.90;;;;;;5055165;28;20224;-86
2022/04/09 06:26:02;;;;;;;8.27;2.60;;;4.70;99.90;;;;;;5055097;28;20162;-85
2022/04/09 06:28:28;;;;;;;11.90;3.30;;;4.80;99.90;;;;;;5054914;28;20170;-81
2022/04/09 06:30:54;;;;;;;10.43;2.30;;;4.90;99.90;;;;;;5053599;28;20271;-84
2022/04/09 06:33:22;;;;;;;12.73;2.47;;;4.90;99.90;;;;;;5053519;28;20174;-86
2022/04/09 06:35:49;;;;;;;9.77;2.40;;;4.90;99.90;;;;;;5054454;28;20225;-84
2022/04/09 06:38:14;;;;;;;11.17;3.03;;;4.90;99.90;;;;;;5053731;28;20177;-85
2022/04/09 06:40:40;;;;;;;7.00;2.53;;;4.90;99.90;;;;;;5054676;28;20173;-84
2022/04/09 06:43:06;;;;;;;9.43;2.20;;;5.10;99.90;;;;;;5054796;28;20254;-85
2022/04/09 06:45:31;;;;;;;10.80;2.50;;;5.10;99.90;;;;;;5054881;28;20173;-86
2022/04/09 06:47:57;;;;;;;8.37;2.27;;;5.10;99.90;;;;;;5054533;28;20479;-86
2022/04/09 06:50:23;;;;;;;7.47;2.37;;;5.20;99.90;;;;;;5054359;28;20213;-83
2022/04/09 06:52:48;;;;;;;6.97;2.43;;;5.30;99.90;;;;;;5054627;28;20181;-85
2022/04/09 06:55:14;;;;;;;7.03;2.63;;;5.40;99.90;;;;;;5054672;28;20248;-85
2022/04/09 06:57:41;;;;;;;4.47;2.20;;;5.40;99.90;;;;;;5054579;28;20174;-85
2022/04/09 07:00:12;;;;;;;6.87;2.43;;;5.40;99.90;;;;;;5054572;28;20162;-85
2022/04/09 07:02:38;;;;;;;8.43;2.40;;;5.40;99.90;;;;;;5054398;28;20181;-85
2022/04/09 07:05:05;;;;;;;8.47;2.50;;;5.40;99.90;;;;;;5054283;28;20182;-86
2022/04/09 07:07:30;;;;;;;8.87;2.50;;;5.50;99.90;;;;;;5053378;28;20272;-86
2022/04/09 07:10:07;;;;;;;11.57;3.03;;;5.60;99.90;;;;;;5054593;28;20252;-87
2022/04/09 07:12:33;;;;;;;8.47;2.50;;;5.70;99.90;;;;;;5054470;28;20161;-81
2022/04/09 07:14:59;;;;;;;12.07;3.00;;;5.70;99.90;;;;;;5054299;28;20547;-84
2022/04/09 07:17:26;;;;;;;14.17;3.13;;;5.70;99.90;;;;;;5054282;28;20173;-85
2022/04/09 07:20:02;;;;;;;11.10;2.93;;;5.80;99.90;;;;;;5052848;28;20201;-86
2022/04/09 07:22:28;;;;;;;12.37;2.97;;;5.90;99.90;;;;;;5054845;28;20212;-82
2022/04/09 07:24:55;;;;;;;10.70;2.67;;;5.90;99.90;;;;;;5058558;28;20174;-85
2022/04/09 07:27:21;;;;;;;8.70;2.50;;;5.80;99.90;;;;;;5058255;28;20197;-85
2022/04/09 07:29:48;;;;;;;10.10;2.27;;;5.70;99.90;;;;;;5058299;28;20170;-86
2022/04/09 07:32:14;;;;;;;8.30;2.70;;;5.80;99.90;;;;;;5058243;28;20213;-84
2022/04/09 07:34:39;;;;;;;11.77;2.73;;;5.90;99.90;;;;;;5058151;28;20264;-85
2022/04/09 07:37:06;;;;;;;11.97;2.83;;;6.00;99.90;;;;;;5058076;28;20162;-85
2022/04/09 07:39:31;;;;;;;8.60;3.00;;;6.20;99.90;;;;;;5056882;28;20507;-85
2022/04/09 07:41:57;;;;;;;12.53;3.00;;;6.50;99.90;;;;;;5057890;28;20170;-81
2022/04/09 07:44:23;;;;;;;12.90;2.60;;;6.40;99.90;;;;;;5057859;28;20181;-85
2022/04/09 07:46:49;;;;;;;8.93;2.33;;;6.40;99.90;;;;;;5057988;28;20607;-83
2022/04/09 07:49:15;;;;;;;5.87;2.23;;;6.40;99.90;;;;;;5056922;28;20564;-86
2022/04/09 07:51:41;;;;;;;8.97;2.20;;;6.40;99.90;;;;;;5057594;28;20205;-86
2022/04/09 07:54:06;;;;;;;6.80;2.93;;;6.40;99.90;;;;;;5058031;28;20205;-85
2022/04/09 07:56:32;;;;;;;9.80;2.60;;;6.40;99.90;;;;;;5057842;28;20209;-86
2022/04/09 07:58:58;;;;;;;7.23;2.43;;;6.30;99.90;;;;;;5057649;28;20616;-84
2022/04/09 08:01:23;;;;;;;8.73;2.50;;;6.20;99.90;;;;;;5056489;28;20609;-85
2022/04/09 08:03:49;;;;;;;9.90;2.30;;;6.30;99.90;;;;;;5057695;28;20597;-85
2022/04/09 08:06:15;;;;;;;6.90;2.17;;;6.60;99.90;;;;;;5057660;28;20245;-86
2022/04/09 08:08:41;;;;;;;9.43;2.50;;;6.80;99.90;;;;;;5057700;28;20182;-86
2022/04/09 08:11:07;;;;;;;11.53;2.73;;;6.80;99.90;;;;;;5057368;28;20293;-79
2022/04/09 08:13:33;;;;;;;8.97;2.23;;;6.80;99.90;;;;;;5057176;28;20624;-86
2022/04/09 08:15:59;;;;;;;5.80;2.43;;;6.80;99.90;;;;;;5057374;28;20173;-83
2022/04/09 08:18:25;;;;;;;6.20;2.30;;;6.80;99.90;;;;;;5057178;28;20177;-80
2022/04/09 08:20:51;;;;;;;7.30;1.80;;;7.00;99.90;;;;;;5056925;28;20313;-81
2022/04/09 08:23:17;;;;;;;8.87;2.50;;;7.30;99.90;;;;;;5057026;28;20178;-81
2022/04/09 08:25:43;;;;;;;5.70;1.77;;;7.20;99.90;;;;;;5056958;28;20185;-82
2022/04/09 08:28:08;;;;;;;8.30;1.83;;;7.00;99.90;;;;;;5057016;28;20563;-80
2022/04/09 08:30:35;;;;;;;9.07;1.70;;;7.00;99.90;;;;;;5057045;28;20209;-85
2022/04/09 08:33:05;;;;;;;9.00;2.03;;;7.00;99.90;;;;;;5057180;28;20170;-83
2022/04/09 08:35:31;;;;;;;10.83;1.97;;;6.80;99.90;;;;;;5057767;28;20189;-84
2022/04/09 08:37:57;;;;;;;8.27;1.80;;;6.70;99.90;;;;;;5057006;28;20178;-84
2022/04/09 08:40:24;;;;;;;9.33;1.90;;;7.00;99.90;;;;;;5057002;28;20202;-84
2022/04/09 08:42:50;;;;;;;10.60;2.20;;;7.10;99.90;;;;;;5056737;28;20228;-85
2022/04/09 08:45:17;;;;;;;5.60;1.57;;;7.10;99.90;;;;;;5055838;28;20178;-84
2022/04/09 08:47:44;;;;;;;7.30;1.73;;;7.10;99.90;;;;;;5056752;28;20601;-83
2022/04/09 08:50:11;;;;;;;8.60;1.97;;;7.20;99.90;;;;;;5056439;28;20178;-85
2022/04/09 08:52:39;;;;;;;8.37;1.53;;;7.40;99.90;;;;;;5055649;28;20181;-83
2022/04/09 08:55:06;;;;;;;6.63;1.67;;;7.30;99.90;;;;;;5056665;28;20174;-86
2022/04/09 08:57:34;;;;;;;6.33;1.50;;;7.20;99.90;;;;;;5056521;28;20544;-86
2022/04/09 09:00:06;;;;;;;5.90;1.67;;;7.30;99.90;;;;;;5056607;28;20690;-85
2022/04/09 09:02:34;;;;;;;9.90;1.93;;;7.30;99.90;;;;;;5056594;28;20593;-85
2022/04/09 09:05:00;;;;;;;9.80;1.60;;;7.60;99.90;;;;;;5055364;28;20209;-85
2022/04/09 09:07:25;;;;;;;5.93;1.50;;;7.70;99.90;;;;;;5056206;28;20212;-86
2022/04/09 09:09:52;;;;;;;7.77;1.63;;;7.70;99.90;;;;;;5056372;28;20519;-84
2022/04/09 09:12:31;;;;;;;6.20;1.50;;;7.80;99.90;;;;;;5055540;28;20698;-83
2022/04/09 09:14:58;;;;;;;7.47;1.93;;;7.90;99.90;;;;;;5056399;28;20165;-85
2022/04/09 09:17:29;;;;;;;6.00;1.47;;;7.80;99.90;;;;;;5054976;28;20243;-84
2022/04/09 09:19:55;;;;;;;8.90;1.80;;;7.70;99.90;;;;;;5055904;28;20224;-85
2022/04/09 09:22:21;;;;;;;5.10;1.53;;;7.50;99.90;;;;;;5055704;28;20158;-86
2022/04/09 09:25:07;;;;;;;7.77;1.43;;;7.30;99.90;;;;;;5056133;28;20177;-84
2022/04/09 09:27:32;;;;;;;6.87;1.60;;;7.30;99.90;;;;;;5056094;28;20504;-85
2022/04/09 09:29:58;;;;;;;7.30;1.40;;;7.30;99.90;;;;;;5054697;28;20178;-82
2022/04/09 09:32:26;;;;;;;4.97;1.43;;;7.30;99.90;;;;;;5056059;28;20174;-84
2022/04/09 09:34:57;;;;;;;8.77;1.83;;;7.20;99.90;;;;;;5054615;28;20265;-85
2022/04/09 09:37:24;;;;;;;9.57;1.67;;;7.30;99.90;;;;;;5055665;28;20516;-85
2022/04/09 09:39:50;;;;;;;7.97;1.30;;;7.50;99.90;;;;;;5055895;28;20193;-84
2022/04/09 09:42:21;;;;;;;5.03;1.00;;;7.70;99.90;;;;;;5055742;28;20213;-85
2022/04/09 09:44:47;;;;;;;4.80;1.20;;;7.60;99.90;;;;;;5054520;28;20180;-84
2022/04/09 09:47:14;;;;;;;5.00;1.10;;;7.70;99.90;;;;;;5054310;28;20202;-84
2022/04/09 09:49:58;;;;;;;3.93;1.10;;;7.60;99.90;;;;;;5055490;28;20181;-85
2022/04/09 09:52:29;;;;;;;6.17;1.20;;;7.50;99.90;;;;;;5055396;28;20194;-84
2022/04/09 09:54:59;;;;;;;10.60;1.50;;;7.70;99.90;;;;;;5055737;28;20550;-85
2022/04/09 09:57:28;;;;;;;4.90;1.20;;;7.70;99.90;;;;;;5054240;28;20166;-84
2022/04/09 10:00:04;;;;;;;3.73;1.20;;;7.70;99.90;;;;;;5055259;28;20166;-82
2022/04/09 10:02:30;;;;;;;5.83;1.20;;;7.70;99.90;;;;;;5054367;28;20245;-84
2022/04/09 10:04:56;;;;;;;4.20;0.97;;;7.90;99.90;;;;;;5055392;28;20170;-84
2022/04/09 10:07:23;;;;;;;5.03;1.20;;;7.90;99.90;;;;;;5055146;28;20612;-84
2022/04/09 10:09:49;;;;;;;5.53;1.20;;;7.80;99.90;;;;;;5055575;28;20165;-83
2022/04/09 10:12:20;;;;;;;3.97;1.30;;;7.80;99.90;;;;;;5053712;28;20217;-85
2022/04/09 10:14:57;;;;;;;8.47;1.20;;;7.80;99.90;;;;;;5055397;28;20166;-84
2022/04/09 10:17:24;;;;;;;8.83;1.50;;;8.00;99.90;;;;;;5053945;28;20212;-81
2022/04/09 10:19:55;;;;;;;5.33;1.13;;;8.30;99.90;;;;;;5054786;28;20169;-84
2022/04/09 10:22:27;;;;;;;1.70;0.77;;;8.40;99.90;;;;;;5054684;28;20205;-85
2022/04/09 10:24:55;;;;;;;6.07;1.07;;;8.40;99.90;;;;;;5053651;28;20616;-82
2022/04/09 10:27:38;;;;;;;2.40;0.90;;;8.20;99.90;;;;;;5054815;28;20165;-85
2022/04/09 10:30:17;;;;;;;4.60;1.10;;;7.90;99.90;;;;;;5053426;28;20177;-81
2022/04/09 10:32:46;;;;;;;5.43;1.30;;;8.20;99.90;;;;;;5054919;28;20157;-82
2022/04/09 10:35:38;;;;;;;3.90;1.03;;;8.50;99.90;;;;;;5054680;28;20208;-85
2022/04/09 10:38:07;;;;;;;5.33;1.10;;;8.80;99.90;;;;;;5053431;28;20562;-83
2022/04/09 10:40:56;;;;;;;4.87;1.00;;;8.60;99.90;;;;;;5053473;28;20185;-83
2022/04/09 10:43:25;;;;;;;4.57;1.00;;;8.40;99.90;;;;;;5054418;28;20182;-84
2022/04/09 10:46:02;;;;;;;3.60;1.60;;;8.40;99.90;;;;;;5054375;28;20174;-86
2022/04/09 10:48:42;;;;;;;4.73;1.10;;;8.60;99.90;;;;;;5054678;28;20241;-83
2022/04/09 10:51:18;;;;;;;4.33;1.10;;;8.80;99.90;;;;;;5054162;28;20636;-82
2022/04/09 10:53:49;;;;;;;4.67;1.13;;;9.10;99.90;;;;;;5054450;28;20608;-82
2022/04/09 10:56:25;;;;;;;3.23;1.07;;;9.20;99.90;;;;;;5054473;28;20178;-84
2022/04/09 10:59:06;;;;;;;2.87;0.73;;;9.50;99.90;;;;;;5054031;28;20240;-84
2022/04/09 11:01:45;;;;;;;3.13;0.80;;;9.60;99.90;;;;;;5053079;28;20499;-85
2022/04/09 11:04:34;;;;;;;1.37;0.77;;;9.70;99.90;;;;;;5053070;28;20516;-82
2022/04/09 11:07:15;;;;;;;7.27;1.40;;;10.00;99.90;;;;;;5054192;28;20165;-84
2022/04/09 11:09:56;;;;;;;8.90;1.40;;;10.40;99.90;;;;;;5054349;28;20223;-83
2022/04/09 11:12:24;;;;;;;6.53;1.30;;;10.20;99.90;;;;;;5054138;28;20208;-85
2022/04/09 11:14:56;;;;;;;2.83;1.00;;;10.00;99.90;;;;;;5052871;28;20617;-82
2022/04/09 11:17:34;;;;;;;5.37;1.10;;;10.00;99.90;;;;;;5052981;28;20273;-84
2022/04/09 11:20:07;;;;;;;5.27;1.20;;;9.80;99.90;;;;;;5052839;28;20227;-83
2022/04/09 11:22:42;;;;;;;1.97;0.80;;;10.00;99.90;;;;;;5052542;28;20209;-84
2022/04/09 11:25:16;;;;;;;2.40;0.70;;;10.20;99.90;;;;;;5054186;28;20295;-84
2022/04/09 11:27:42;;;;;;;4.97;0.77;;;10.50;99.90;;;;;;5053881;28;20621;-84
2022/04/09 11:30:09;;;;;;;2.00;0.97;;;10.60;99.90;;;;;;5053976;28;20253;-82
2022/04/09 11:32:35;;;;;;;8.47;1.03;;;10.40;99.90;;;;;;5054050;28;20202;-83
2022/04/09 11:35:06;;;;;;;3.00;0.77;;;10.00;99.90;;;;;;5052794;28;20186;-83
2022/04/09 11:37:32;;;;;;;4.47;1.00;;;9.70;99.90;;;;;;5053774;28;20177;-82
2022/04/09 11:40:05;;;;;;;3.90;1.00;;;9.50;99.90;;;;;;5054069;28;20176;-84
2022/04/09 11:42:57;;;;;;;3.03;1.03;;;9.20;99.90;;;;;;5054016;28;20260;-84
2022/04/09 11:45:31;;;;;;;3.50;1.10;;;9.00;99.90;;;;;;5054056;28;20162;-83
2022/04/09 11:48:02;;;;;;;7.00;0.90;;;8.90;99.90;;;;;;5053989;28;20158;-83
2022/04/09 11:50:32;;;;;;;2.93;1.03;;;9.00;99.90;;;;;;5052598;28;20316;-79
2022/04/09 11:53:17;;;;;;;2.17;0.70;;;9.00;99.90;;;;;;5053500;28;20600;-80
2022/04/09 11:55:44;;;;;;;2.37;0.90;;;8.50;99.90;;;;;;5053779;28;20187;-79
2022/04/09 11:58:15;;;;;;;3.57;0.97;;;7.70;99.90;;;;;;5053698;28;20213;-78
2022/04/09 12:00:44;;;;;;;3.73;0.70;;;7.00;99.90;;;;;;5053596;28;20609;-79
2022/04/09 12:03:10;;;;;;;1.53;0.87;;;5.80;99.90;;;;;;5052281;28;20176;-79
2022/04/09 12:05:39;;;;;;;3.77;0.60;;;5.30;99.90;;;;;;5053713;28;20174;-79
2022/04/09 12:08:11;;;;;;;1.17;0.70;;;5.00;99.90;;;;;;5053722;28;20616;-80
2022/04/09 12:10:57;;;;;;;1.43;0.70;;;4.80;99.90;;;;;;5055611;28;20225;-79
2022/04/09 12:13:35;;;;;;;1.83;0.70;;;4.80;99.90;;;;;;5057069;28;20186;-79
2022/04/09 12:16:11;;;;;;;1.23;0.60;;;5.00;99.90;;;;;;5057237;28;20200;-78
2022/04/09 12:18:37;;;;;;;1.90;0.80;;;5.50;99.90;;;;;;5056999;28;20537;-80
2022/04/09 12:21:24;;;;;;;1.63;0.53;;;6.20;99.90;;;;;;5056778;28;20706;-80
2022/04/09 12:24:07;;;;;;;2.10;0.60;;;6.90;99.90;;;;;;5055713;28;20178;-81
2022/04/09 12:26:43;;;;;;;1.43;0.50;;;7.50;99.90;;;;;;5056976;28;20230;-80
2022/04/09 12:29:20;;;;;;;2.37;0.70;;;7.70;99.90;;;;;;5056939;28;20609;-78
2022/04/09 12:31:48;;;;;;;2.97;0.80;;;7.90;99.90;;;;;;5056559;28;20250;-79
2022/04/09 12:34:14;;;;;;;1.77;0.63;;;8.00;99.90;;;;;;5056720;28;20166;-79
2022/04/09 12:37:00;;;;;;;2.00;0.70;;;8.20;99.90;;;;;;5056563;28;20590;-79
2022/04/09 12:39:26;;;;;;;1.60;0.60;;;8.30;99.90;;;;;;5056687;28;20166;-81
2022/04/09 12:41:52;;;;;;;1.67;0.70;;;8.40;99.90;;;;;;5056551;28;20181;-79
2022/04/09 12:44:32;;;;;;;2.07;0.60;;;8.10;99.90;;;;;;5055257;28;20181;-79
2022/04/09 12:46:58;;;;;;;3.33;0.87;;;7.90;99.90;;;;;;5055378;28;20227;-79
2022/04/09 12:49:27;;;;;;;1.90;0.83;;;7.70;99.90;;;;;;5056443;28;20661;-79
2022/04/09 12:51:53;;;;;;;5.60;1.30;;;7.60;99.90;;;;;;5054809;28;20592;-81
2022/04/09 12:54:19;;;;;;;1.77;0.50;;;7.50;99.90;;;;;;5056864;28;20257;-79
2022/04/09 12:56:44;;;;;;;1.90;0.70;;;7.20;99.90;;;;;;5056375;28;20224;-79
2022/04/09 12:59:10;;;;;;;1.33;0.50;;;7.00;99.90;;;;;;5056170;28;20166;-78